createdAt,value
2018-01-19T05:00:27.964Z,2.6
2018-01-19T05:00:53.457Z,2.61
2018-01-19T05:01:18.937Z,2.62
2018-01-19T05:01:44.437Z,2.68
2018-01-19T05:02:09.945Z,2.6
2018-01-19T05:02:35.442Z,2.61
2018-01-19T05:03:00.936Z,2.6
2018-01-19T05:03:26.420Z,2.6
2018-01-19T05:04:19.834Z,2.56
2018-01-19T05:04:45.327Z,2.6
2018-01-19T05:05:10.803Z,2.54
2018-01-19T05:05:36.311Z,2.54
2018-01-19T05:06:34.795Z,2.54
2018-01-19T05:07:00.276Z,2.47
2018-01-19T05:07:25.744Z,2.53
2018-01-19T05:07:51.231Z,2.54
2018-01-19T05:08:16.739Z,2.56
2018-01-19T05:09:20.346Z,2.54
2018-01-19T05:09:45.829Z,2.57
2018-01-19T05:10:54.498Z,2.57
2018-01-19T05:11:19.980Z,2.57
2018-01-19T05:11:45.459Z,2.54
2018-01-19T05:12:10.932Z,2.57
2018-01-19T05:12:36.407Z,2.56
2018-01-19T05:13:01.884Z,2.56
2018-01-19T05:13:27.391Z,2.56
2018-01-19T05:14:15.690Z,2.57
2018-01-19T05:14:41.184Z,2.57
2018-01-19T05:15:06.639Z,2.68
2018-01-19T05:15:32.131Z,2.57
2018-01-19T05:15:57.627Z,2.54
2018-01-19T05:16:23.093Z,2.57
2018-01-19T05:16:48.613Z,2.67
2018-01-19T05:17:14.108Z,2.6
2018-01-19T05:17:39.597Z,2.62
2018-01-19T05:18:05.116Z,2.64
2018-01-19T05:18:30.621Z,2.65
2018-01-19T05:18:56.105Z,2.62
2018-01-19T05:19:21.602Z,2.64
2018-01-19T05:19:47.040Z,2.6
2018-01-19T05:20:12.511Z,2.61
2018-01-19T05:20:38.022Z,2.64
2018-01-19T05:21:03.529Z,2.6
2018-01-19T05:22:07.130Z,2.62
2018-01-19T05:22:32.652Z,2.61
2018-01-19T05:22:58.127Z,2.6
2018-01-19T05:23:23.621Z,2.56
2018-01-19T05:23:49.096Z,2.6
2018-01-19T05:24:57.792Z,2.61
2018-01-19T05:25:23.297Z,2.65
2018-01-19T05:25:48.790Z,2.65
2018-01-19T05:26:14.278Z,2.6
2018-01-19T05:26:39.735Z,2.64
2018-01-19T05:27:05.261Z,2.61
2018-01-19T05:27:30.728Z,2.68
2018-01-19T05:27:56.216Z,2.61
2018-01-19T05:28:21.691Z,2.62
2018-01-19T05:28:47.209Z,2.64
2018-01-19T05:29:12.702Z,2.57
2018-01-19T05:29:38.160Z,2.67
2018-01-19T05:30:03.660Z,2.62
2018-01-19T05:30:29.120Z,2.62
2018-01-19T05:30:54.591Z,2.56
2018-01-19T05:31:20.065Z,2.68
2018-01-19T05:31:45.580Z,2.65
2018-01-19T05:32:11.079Z,2.68
2018-01-19T05:33:19.795Z,2.54
2018-01-19T05:33:45.298Z,2.62
2018-01-19T05:34:10.787Z,2.51
2018-01-19T05:34:36.286Z,2.57
2018-01-19T05:35:01.802Z,2.64
2018-01-19T05:35:27.275Z,2.62
2018-01-19T05:35:52.746Z,2.57
2018-01-19T05:36:57.059Z,2.62
2018-01-19T05:37:22.578Z,2.6
2018-01-19T05:37:48.069Z,2.64
2018-01-19T05:38:13.535Z,2.57
2018-01-19T05:38:38.995Z,2.61
2018-01-19T05:39:04.475Z,2.62
2018-01-19T05:39:29.933Z,2.64
2018-01-19T05:39:55.433Z,2.65
2018-01-19T05:40:20.899Z,2.62
2018-01-19T05:40:46.383Z,2.62
2018-01-19T05:41:11.868Z,2.65
2018-01-19T05:41:37.340Z,2.61
2018-01-19T05:42:02.863Z,2.65
2018-01-19T05:42:28.382Z,2.67
2018-01-19T05:42:53.833Z,2.67
2018-01-19T05:43:19.329Z,2.67
2018-01-19T05:43:44.763Z,2.64
2018-01-19T05:44:10.208Z,2.61
2018-01-19T05:44:35.698Z,2.57
2018-01-19T05:45:01.146Z,2.6
2018-01-19T05:45:26.607Z,2.65
2018-01-19T05:45:52.103Z,2.65
2018-01-19T05:46:45.523Z,2.67
2018-01-19T05:47:10.985Z,2.57
2018-01-19T05:47:36.475Z,2.64
2018-01-19T05:48:01.947Z,2.68
2018-01-19T05:48:27.436Z,2.71
2018-01-19T05:48:52.925Z,2.65
2018-01-19T05:49:18.458Z,2.64
2018-01-19T05:49:43.949Z,2.61
2018-01-19T05:50:09.438Z,2.62
2018-01-19T05:50:34.912Z,2.68
2018-01-19T05:51:00.464Z,2.6
2018-01-19T05:51:25.951Z,2.64
2018-01-19T05:51:51.425Z,2.61
2018-01-19T05:52:16.902Z,2.62
2018-01-19T05:52:42.391Z,2.6
2018-01-19T05:53:07.867Z,2.61
2018-01-19T05:53:33.338Z,2.67
2018-01-19T05:53:58.863Z,2.65
2018-01-19T05:54:24.381Z,2.62
2018-01-19T05:54:49.850Z,2.65
2018-01-19T05:55:15.344Z,2.68
2018-01-19T05:55:40.834Z,2.62
2018-01-19T05:56:06.299Z,2.65
2018-01-19T05:56:31.786Z,2.62
2018-01-19T05:56:57.287Z,2.64
2018-01-19T05:57:22.774Z,2.65
2018-01-19T05:57:48.238Z,2.69
2018-01-19T05:58:36.543Z,2.69
2018-01-19T05:59:02.048Z,2.64
2018-01-19T05:59:27.551Z,2.72
2018-01-19T05:59:53.075Z,2.69
2018-01-19T06:00:18.514Z,2.67
2018-01-19T06:00:44.026Z,2.64
2018-01-19T06:01:09.524Z,2.67
2018-01-19T06:01:35.011Z,2.69
2018-01-19T06:02:00.556Z,2.74
2018-01-19T06:02:26.018Z,2.64
2018-01-19T06:03:24.510Z,2.77
2018-01-19T06:03:50.008Z,2.8
2018-01-19T06:04:15.543Z,2.69
2018-01-19T06:04:41.024Z,2.77
2018-01-19T06:05:06.529Z,2.71
2018-01-19T06:05:32.011Z,2.79
2018-01-19T06:05:57.530Z,2.74
2018-01-19T06:06:23.021Z,2.68
2018-01-19T06:06:48.482Z,2.72
2018-01-19T06:07:13.998Z,2.69
2018-01-19T06:07:39.468Z,2.74
2018-01-19T06:08:04.926Z,2.71
2018-01-19T06:08:30.501Z,2.68
2018-01-19T06:08:55.929Z,2.71
2018-01-19T06:09:21.395Z,2.71
2018-01-19T06:09:46.877Z,2.82
2018-01-19T06:10:12.356Z,2.69
2018-01-19T06:10:37.856Z,2.68
2018-01-19T06:11:03.293Z,2.74
2018-01-19T06:11:28.822Z,2.72
2018-01-19T06:11:54.319Z,2.71
2018-01-19T06:12:19.805Z,2.75
2018-01-19T06:12:45.273Z,2.72
2018-01-19T06:13:10.737Z,2.69
2018-01-19T06:13:36.235Z,2.72
2018-01-19T06:14:01.783Z,2.68
2018-01-19T06:14:27.250Z,2.71
2018-01-19T06:15:15.559Z,2.74
2018-01-19T06:15:41.063Z,2.71
2018-01-19T06:16:06.558Z,2.72
2018-01-19T06:17:10.153Z,2.71
2018-01-19T06:17:35.683Z,2.71
2018-01-19T06:18:01.175Z,2.75
2018-01-19T06:18:26.624Z,2.74
2018-01-19T06:18:52.106Z,2.72
2018-01-19T06:19:17.612Z,2.64
2018-01-19T06:19:43.174Z,2.71
2018-01-19T06:20:08.685Z,2.67
2018-01-19T06:20:34.304Z,2.68
2018-01-19T06:20:59.785Z,2.69
2018-01-19T06:21:25.283Z,2.67
2018-01-19T06:21:50.779Z,2.79
2018-01-19T06:22:16.238Z,2.75
2018-01-19T06:22:41.787Z,2.77
2018-01-19T06:23:07.265Z,2.74
2018-01-19T06:23:32.766Z,2.79
2018-01-19T06:23:58.243Z,2.74
2018-01-19T06:24:23.756Z,2.69
2018-01-19T06:24:49.287Z,2.69
2018-01-19T06:25:14.774Z,2.79
2018-01-19T06:25:40.284Z,2.75
2018-01-19T06:26:05.890Z,2.74
2018-01-19T06:26:31.383Z,2.75
2018-01-19T06:26:56.878Z,2.75
2018-01-19T06:27:22.381Z,2.82
2018-01-19T06:28:20.912Z,2.77
2018-01-19T06:28:46.402Z,2.79
2018-01-19T06:29:11.903Z,2.69
2018-01-19T06:29:37.400Z,2.72
2018-01-19T06:30:02.901Z,2.77
2018-01-19T06:30:28.474Z,2.74
2018-01-19T06:30:53.964Z,2.71
2018-01-19T06:31:19.470Z,2.8
2018-01-19T06:31:44.957Z,2.69
2018-01-19T06:32:10.465Z,2.77
2018-01-19T06:32:35.953Z,2.77
2018-01-19T06:33:01.457Z,2.79
2018-01-19T06:33:26.967Z,2.71
2018-01-19T06:33:52.444Z,2.86
2018-01-19T06:34:17.950Z,2.72
2018-01-19T06:35:06.247Z,2.69
2018-01-19T06:35:31.760Z,2.86
2018-01-19T06:35:57.247Z,2.85
2018-01-19T06:36:22.724Z,2.85
2018-01-19T06:37:16.135Z,2.77
2018-01-19T06:37:41.620Z,2.82
2018-01-19T06:38:07.110Z,2.82
2018-01-19T06:38:32.560Z,2.75
2018-01-19T06:38:58.140Z,2.75
2018-01-19T06:39:23.613Z,2.82
2018-01-19T06:39:49.060Z,2.75
2018-01-19T06:40:14.551Z,2.74
2018-01-19T06:40:39.990Z,2.79
2018-01-19T06:41:05.449Z,2.75
2018-01-19T06:41:30.890Z,2.79
2018-01-19T06:41:56.394Z,2.69
2018-01-19T06:42:21.858Z,2.75
2018-01-19T06:42:47.331Z,2.8
2018-01-19T06:43:12.798Z,2.75
2018-01-19T06:43:38.246Z,2.8
2018-01-19T06:44:03.745Z,2.8
2018-01-19T06:44:29.176Z,2.75
2018-01-19T06:44:54.666Z,2.74
2018-01-19T06:45:20.122Z,2.72
2018-01-19T06:45:45.575Z,2.8
2018-01-19T06:46:11.083Z,2.8
2018-01-19T06:46:36.507Z,2.87
2018-01-19T06:47:01.963Z,2.89
2018-01-19T06:47:27.413Z,2.77
2018-01-19T06:47:52.924Z,2.75
2018-01-19T06:48:18.408Z,2.82
2018-01-19T06:48:43.825Z,2.8
2018-01-19T06:49:09.326Z,2.82
2018-01-19T06:49:34.754Z,2.79
2018-01-19T06:50:00.204Z,2.82
2018-01-19T06:50:25.650Z,2.83
2018-01-19T06:50:51.098Z,2.75
2018-01-19T06:51:16.557Z,2.75
2018-01-19T06:51:42.027Z,2.8
2018-01-19T06:52:07.548Z,2.8
2018-01-19T06:52:33.076Z,2.75
2018-01-19T06:53:41.829Z,2.75
2018-01-19T06:54:07.267Z,2.83
2018-01-19T06:54:32.782Z,2.74
2018-01-19T06:54:58.236Z,2.8
2018-01-19T06:55:23.706Z,2.77
2018-01-19T06:55:49.190Z,2.83
2018-01-19T06:56:14.632Z,2.85
2018-01-19T06:56:40.116Z,2.74
2018-01-19T06:57:05.563Z,2.86
2018-01-19T06:57:31.032Z,2.85
2018-01-19T06:57:56.504Z,2.83
2018-01-19T06:58:21.988Z,2.83
2018-01-19T06:58:47.442Z,2.83
2018-01-19T06:59:12.895Z,2.85
2018-01-19T06:59:38.393Z,2.85
2018-01-19T07:00:03.886Z,2.8
2018-01-19T07:00:29.347Z,2.8
2018-01-19T07:00:54.837Z,2.83
2018-01-19T07:01:20.248Z,2.77
2018-01-19T07:01:45.720Z,2.77
2018-01-19T07:02:11.159Z,2.85
2018-01-19T07:02:36.697Z,2.77
2018-01-19T07:03:02.151Z,2.8
2018-01-19T07:03:27.608Z,2.8
2018-01-19T07:03:53.089Z,2.86
2018-01-19T07:04:18.539Z,2.8
2018-01-19T07:05:22.121Z,2.86
2018-01-19T07:05:47.622Z,2.82
2018-01-19T07:06:13.085Z,2.85
2018-01-19T07:06:38.535Z,2.86
2018-01-19T07:07:04.047Z,2.82
2018-01-19T07:07:29.532Z,2.87
2018-01-19T07:07:54.974Z,2.85
2018-01-19T07:08:20.450Z,2.87
2018-01-19T07:08:45.913Z,2.85
2018-01-19T07:09:11.330Z,2.8
2018-01-19T07:09:36.822Z,2.89
2018-01-19T07:10:02.263Z,2.86
2018-01-19T07:10:27.714Z,2.89
2018-01-19T07:10:53.226Z,2.9
2018-01-19T07:11:18.684Z,2.87
2018-01-19T07:11:44.157Z,2.9
2018-01-19T07:12:09.598Z,2.86
2018-01-19T07:12:35.137Z,2.85
2018-01-19T07:13:00.586Z,2.9
2018-01-19T07:13:26.034Z,2.89
2018-01-19T07:13:51.469Z,2.86
2018-01-19T07:14:16.956Z,2.87
2018-01-19T07:14:42.422Z,2.86
2018-01-19T07:15:07.898Z,2.86
2018-01-19T07:15:33.305Z,2.86
2018-01-19T07:15:58.774Z,2.89
2018-01-19T07:16:24.291Z,2.89
2018-01-19T07:16:49.759Z,2.92
2018-01-19T07:17:48.330Z,2.9
2018-01-19T07:18:13.771Z,2.95
2018-01-19T07:18:39.259Z,2.93
2018-01-19T07:19:04.751Z,2.93
2018-01-19T07:19:30.185Z,2.9
2018-01-19T07:19:55.696Z,2.92
2018-01-19T07:20:21.186Z,2.9
2018-01-19T07:20:46.672Z,2.92
2018-01-19T07:21:12.162Z,2.9
2018-01-19T07:21:37.594Z,2.87
2018-01-19T07:22:03.079Z,2.83
2018-01-19T07:22:28.546Z,2.95
2018-01-19T07:22:53.997Z,2.89
2018-01-19T07:23:19.444Z,2.87
2018-01-19T07:23:44.969Z,2.9
2018-01-19T07:24:10.461Z,2.93
2018-01-19T07:24:35.884Z,2.87
2018-01-19T07:25:01.440Z,2.93
2018-01-19T07:25:26.910Z,2.92
2018-01-19T07:25:52.304Z,2.9
2018-01-19T07:26:17.755Z,2.86
2018-01-19T07:26:43.249Z,2.92
2018-01-19T07:27:08.667Z,3
2018-01-19T07:27:34.150Z,2.89
2018-01-19T07:27:59.645Z,2.89
2018-01-19T07:28:25.059Z,2.93
2018-01-19T07:28:50.528Z,2.93
2018-01-19T07:29:16.120Z,2.9
2018-01-19T07:29:41.522Z,2.87
2018-01-19T07:30:06.995Z,2.9
2018-01-19T07:30:32.477Z,2.98
2018-01-19T07:30:57.979Z,2.92
2018-01-19T07:31:23.432Z,2.97
2018-01-19T07:31:48.863Z,2.9
2018-01-19T07:32:14.325Z,2.92
2018-01-19T07:32:39.775Z,2.92
2018-01-19T07:33:05.267Z,2.93
2018-01-19T07:33:30.755Z,2.86
2018-01-19T07:33:56.276Z,2.9
2018-01-19T07:34:21.708Z,2.89
2018-01-19T07:34:47.127Z,2.93
2018-01-19T07:35:12.623Z,2.85
2018-01-19T07:35:38.177Z,2.89
2018-01-19T07:36:03.556Z,2.89
2018-01-19T07:36:29.014Z,2.87
2018-01-19T07:36:54.512Z,3
2018-01-19T07:37:19.970Z,3
2018-01-19T07:37:45.415Z,3.07
2018-01-19T07:38:10.889Z,3
2018-01-19T07:38:36.322Z,3
2018-01-19T07:39:01.803Z,3
2018-01-19T07:39:27.266Z,3.05
2018-01-19T07:39:52.749Z,3.01
2018-01-19T07:40:18.231Z,3.01
2018-01-19T07:40:43.697Z,2.98
2018-01-19T07:41:09.178Z,3.07
2018-01-19T07:41:34.628Z,3
2018-01-19T07:42:00.100Z,3.05
2018-01-19T07:42:25.547Z,3.08
2018-01-19T07:42:51.003Z,3.08
2018-01-19T07:43:16.497Z,3.03
2018-01-19T07:43:41.979Z,3.1
2018-01-19T07:44:07.459Z,3.07
2018-01-19T07:44:32.947Z,3.1
2018-01-19T07:44:58.425Z,3.1
2018-01-19T07:45:23.896Z,3.03
2018-01-19T07:45:49.385Z,3.1
2018-01-19T07:46:14.859Z,3.08
2018-01-19T07:46:40.329Z,3.05
2018-01-19T07:47:05.816Z,3.03
2018-01-19T07:47:31.308Z,3.04
2018-01-19T07:47:56.797Z,3.04
2018-01-19T07:48:22.297Z,3.07
2018-01-19T07:48:47.737Z,3.11
2018-01-19T07:49:13.230Z,3.07
2018-01-19T07:49:38.690Z,3.07
2018-01-19T07:50:04.160Z,3.04
2018-01-19T07:50:29.801Z,3.11
2018-01-19T07:50:55.234Z,3.1
2018-01-19T07:51:20.926Z,3.08
2018-01-19T07:51:46.287Z,3.03
2018-01-19T07:52:44.903Z,3.1
2018-01-19T07:53:10.358Z,3.07
2018-01-19T07:53:35.886Z,3.07
2018-01-19T07:54:01.288Z,2.98
2018-01-19T07:54:26.749Z,3.05
2018-01-19T07:54:52.252Z,3.08
2018-01-19T07:55:17.734Z,3.04
2018-01-19T07:55:43.197Z,3.07
2018-01-19T07:56:08.682Z,3.04
2018-01-19T07:56:34.165Z,3.08
2018-01-19T07:56:59.629Z,3.04
2018-01-19T07:57:25.121Z,3.04
2018-01-19T07:58:13.465Z,3.1
2018-01-19T07:58:38.923Z,3.11
2018-01-19T07:59:04.404Z,3.16
2018-01-19T07:59:29.944Z,3.11
2018-01-19T07:59:55.398Z,3.1
2018-01-19T08:00:20.851Z,3.13
2018-01-19T08:00:46.292Z,3.21
2018-01-19T08:01:11.782Z,3.18
2018-01-19T08:01:37.252Z,3.16
2018-01-19T08:02:02.673Z,3.16
2018-01-19T08:02:28.183Z,3.14
2018-01-19T08:02:53.667Z,3.16
2018-01-19T08:03:19.099Z,3.26
2018-01-19T08:03:44.580Z,3.11
2018-01-19T08:04:10.098Z,3.14
2018-01-19T08:04:35.598Z,3.19
2018-01-19T08:05:01.032Z,3.14
2018-01-19T08:05:26.492Z,3.23
2018-01-19T08:05:51.923Z,3.13
2018-01-19T08:06:17.381Z,3.22
2018-01-19T08:06:42.841Z,3.14
2018-01-19T08:07:08.279Z,3.14
2018-01-19T08:07:33.775Z,3.11
2018-01-19T08:07:59.251Z,3.19
2018-01-19T08:08:24.811Z,3.14
2018-01-19T08:08:50.245Z,3.19
2018-01-19T08:09:15.685Z,3.19
2018-01-19T08:09:41.134Z,3.11
2018-01-19T08:10:06.603Z,3.22
2018-01-19T08:10:32.073Z,3.21
2018-01-19T08:10:57.515Z,3.04
2018-01-19T08:11:23.007Z,3.11
2018-01-19T08:11:48.488Z,3.04
2018-01-19T08:12:14.020Z,3.14
2018-01-19T08:12:39.480Z,3.13
2018-01-19T08:13:04.979Z,3.04
2018-01-19T08:14:03.521Z,3.05
2018-01-19T08:14:28.984Z,3.1
2018-01-19T08:14:54.531Z,3.07
2018-01-19T08:15:19.934Z,3.04
2018-01-19T08:15:45.413Z,3.05
2018-01-19T08:16:54.079Z,2.98
2018-01-19T08:17:19.589Z,2.98
2018-01-19T08:17:45.063Z,2.98
2018-01-19T08:18:10.524Z,3.05
2018-01-19T08:18:36.027Z,3
2018-01-19T08:19:01.492Z,3.03
2018-01-19T08:19:26.945Z,3.01
2018-01-19T08:19:52.389Z,2.97
2018-01-19T08:20:17.837Z,3
2018-01-19T08:20:43.393Z,2.97
2018-01-19T08:21:08.791Z,3.01
2018-01-19T08:21:34.235Z,3.03
2018-01-19T08:21:59.776Z,3.05
2018-01-19T08:22:25.207Z,2.98
2018-01-19T08:22:50.670Z,3.04
2018-01-19T08:23:16.166Z,2.95
2018-01-19T08:23:41.587Z,2.95
2018-01-19T08:24:07.007Z,2.93
2018-01-19T08:24:32.501Z,3
2018-01-19T08:24:57.997Z,2.87
2018-01-19T08:26:06.664Z,3.01
2018-01-19T08:26:32.167Z,2.98
2018-01-19T08:26:57.622Z,2.95
2018-01-19T08:27:23.121Z,2.92
2018-01-19T08:27:48.568Z,3.01
2018-01-19T08:28:14.053Z,2.95
2018-01-19T08:29:02.385Z,2.98
2018-01-19T08:29:27.841Z,2.95
2018-01-19T08:29:53.359Z,2.98
2018-01-19T08:30:18.809Z,2.9
2018-01-19T08:31:22.373Z,2.97
2018-01-19T08:31:47.853Z,2.9
2018-01-19T08:32:13.325Z,2.93
2018-01-19T08:32:38.878Z,2.92
2018-01-19T08:33:04.304Z,2.95
2018-01-19T08:33:29.744Z,2.92
2018-01-19T08:33:55.215Z,2.92
2018-01-19T08:34:20.680Z,2.92
2018-01-19T08:34:46.119Z,2.92
2018-01-19T08:35:11.574Z,2.89
2018-01-19T08:35:37.050Z,2.87
2018-01-19T08:36:02.499Z,2.93
2018-01-19T08:36:27.986Z,2.92
2018-01-19T08:36:53.450Z,2.89
2018-01-19T08:37:18.893Z,2.87
2018-01-19T08:37:44.362Z,2.98
2018-01-19T08:38:09.834Z,2.89
2018-01-19T08:38:35.298Z,2.95
2018-01-19T08:39:00.750Z,2.95
2018-01-19T08:39:26.228Z,2.95
2018-01-19T08:39:51.660Z,2.89
2018-01-19T08:40:17.136Z,2.9
2018-01-19T08:40:42.634Z,2.98
2018-01-19T08:41:08.109Z,2.93
2018-01-19T08:41:33.573Z,2.9
2018-01-19T08:41:59.028Z,2.9
2018-01-19T08:42:24.495Z,2.95
2018-01-19T08:42:50.199Z,2.89
2018-01-19T08:43:15.795Z,2.9
2018-01-19T08:43:41.371Z,2.86
2018-01-19T08:44:06.968Z,2.92
2018-01-19T08:44:32.517Z,2.92
2018-01-19T08:44:57.997Z,2.9
2018-01-19T08:45:23.504Z,2.89
2018-01-19T08:45:48.933Z,2.92
2018-01-19T08:46:14.395Z,2.92
2018-01-19T08:46:39.915Z,2.9
2018-01-19T08:47:05.340Z,2.9
2018-01-19T08:47:30.815Z,2.9
2018-01-19T08:47:56.311Z,2.98
2018-01-19T08:48:21.873Z,2.93
2018-01-19T08:48:47.289Z,2.92
2018-01-19T08:49:12.741Z,3
2018-01-19T08:49:38.171Z,2.95
2018-01-19T08:50:03.645Z,2.89
2018-01-19T08:50:29.103Z,2.9
2018-01-19T08:50:54.589Z,2.89
2018-01-19T08:51:20.063Z,2.95
2018-01-19T08:51:45.503Z,2.98
2018-01-19T08:52:49.511Z,2.93
2018-01-19T08:53:14.995Z,3
2018-01-19T08:53:40.467Z,2.86
2018-01-19T08:54:06.052Z,2.95
2018-01-19T08:54:31.643Z,2.93
2018-01-19T08:54:57.072Z,2.9
2018-01-19T08:55:22.602Z,2.9
2018-01-19T08:55:48.064Z,2.86
2018-01-19T08:56:13.670Z,2.9
2018-01-19T08:56:39.228Z,2.92
2018-01-19T08:57:04.739Z,2.89
2018-01-19T08:57:30.196Z,2.92
2018-01-19T08:57:55.934Z,2.97
2018-01-19T08:58:21.381Z,2.95
2018-01-19T08:58:46.914Z,2.9
2018-01-19T08:59:12.393Z,2.97
2018-01-19T08:59:37.879Z,2.92
2018-01-19T09:00:03.399Z,3.07
2018-01-19T09:00:28.907Z,3.01
2018-01-19T09:00:54.350Z,2.95
2018-01-19T09:01:19.901Z,3.04
2018-01-19T09:01:45.307Z,3.07
2018-01-19T09:02:11.140Z,3.04
2018-01-19T09:02:36.552Z,2.98
2018-01-19T09:03:02.252Z,3.07
2018-01-19T09:03:27.730Z,3.05
2018-01-19T09:03:53.201Z,3.08
2018-01-19T09:04:18.669Z,3.1
2018-01-19T09:04:44.147Z,3.1
2018-01-19T09:05:09.598Z,3.05
2018-01-19T09:05:35.092Z,3.04
2018-01-19T09:06:00.590Z,3.1
2018-01-19T09:06:26.041Z,3.08
2018-01-19T09:06:51.494Z,3.14
2018-01-19T09:07:16.969Z,3.08
2018-01-19T09:07:42.508Z,3.13
2018-01-19T09:08:07.988Z,3.13
2018-01-19T09:08:33.478Z,3.07
2018-01-19T09:08:58.908Z,3.11
2018-01-19T09:09:24.388Z,3.04
2018-01-19T09:09:49.829Z,3.14
2018-01-19T09:10:43.260Z,3.13
2018-01-19T09:11:08.730Z,3.18
2018-01-19T09:11:34.174Z,3.26
2018-01-19T09:11:59.648Z,3.19
2018-01-19T09:12:53.104Z,3.25
2018-01-19T09:13:18.610Z,3.21
2018-01-19T09:13:44.084Z,3.25
2018-01-19T09:14:09.599Z,3.29
2018-01-19T09:14:35.116Z,3.29
2018-01-19T09:15:00.591Z,3.29
2018-01-19T09:15:26.060Z,3.29
2018-01-19T09:15:51.541Z,3.31
2018-01-19T09:16:17.049Z,3.36
2018-01-19T09:16:42.506Z,3.36
2018-01-19T09:17:07.959Z,3.32
2018-01-19T09:17:33.418Z,3.32
2018-01-19T09:17:58.896Z,3.28
2018-01-19T09:18:24.360Z,3.34
2018-01-19T09:18:49.842Z,3.44
2018-01-19T09:19:15.336Z,3.28
2018-01-19T09:19:40.851Z,3.36
2018-01-19T09:20:06.299Z,3.42
2018-01-19T09:20:31.757Z,3.42
2018-01-19T09:21:25.172Z,3.37
2018-01-19T09:21:50.646Z,3.41
2018-01-19T09:22:16.171Z,3.45
2018-01-19T09:22:41.666Z,3.55
2018-01-19T09:23:07.122Z,3.42
2018-01-19T09:23:32.617Z,3.53
2018-01-19T09:23:58.074Z,3.47
2018-01-19T09:24:23.551Z,3.48
2018-01-19T09:24:49.151Z,3.55
2018-01-19T09:25:14.821Z,3.5
2018-01-19T09:25:40.325Z,3.42
2018-01-19T09:26:05.790Z,3.5
2018-01-19T09:26:31.277Z,3.56
2018-01-19T09:26:56.732Z,3.55
2018-01-19T09:27:22.245Z,3.5
2018-01-19T09:27:47.672Z,3.53
2018-01-19T09:28:13.178Z,3.59
2018-01-19T09:28:38.624Z,3.56
2018-01-19T09:29:04.120Z,3.6
2018-01-19T09:29:29.617Z,3.59
2018-01-19T09:29:55.097Z,3.63
2018-01-19T09:30:20.528Z,3.58
2018-01-19T09:30:45.993Z,3.63
2018-01-19T09:31:11.438Z,3.58
2018-01-19T09:31:36.928Z,3.65
2018-01-19T09:32:02.422Z,3.65
2018-01-19T09:32:27.876Z,3.51
2018-01-19T09:32:53.392Z,3.65
2018-01-19T09:33:18.798Z,3.65
2018-01-19T09:33:44.247Z,3.56
2018-01-19T09:34:09.754Z,3.66
2018-01-19T09:34:35.170Z,3.56
2018-01-19T09:35:00.607Z,3.56
2018-01-19T09:35:26.060Z,3.65
2018-01-19T09:35:51.536Z,3.62
2018-01-19T09:36:16.971Z,3.66
2018-01-19T09:36:42.431Z,3.68
2018-01-19T09:37:07.883Z,3.65
2018-01-19T09:37:33.400Z,3.63
2018-01-19T09:37:58.911Z,3.6
2018-01-19T09:38:24.306Z,3.66
2018-01-19T09:38:49.772Z,3.6
2018-01-19T09:39:15.246Z,3.68
2018-01-19T09:39:40.696Z,3.62
2018-01-19T09:40:06.193Z,3.59
2018-01-19T09:40:31.680Z,3.68
2018-01-19T09:40:57.122Z,3.63
2018-01-19T09:41:22.578Z,3.7
2018-01-19T09:41:48.065Z,3.69
2018-01-19T09:42:13.531Z,3.68
2018-01-19T09:42:39.025Z,3.68
2018-01-19T09:43:04.525Z,3.73
2018-01-19T09:43:29.964Z,3.7
2018-01-19T09:43:55.437Z,3.69
2018-01-19T09:44:20.881Z,3.78
2018-01-19T09:44:46.314Z,3.76
2018-01-19T09:45:11.764Z,3.73
2018-01-19T09:46:00.075Z,3.78
2018-01-19T09:46:25.547Z,3.8
2018-01-19T09:46:51.040Z,3.8
2018-01-19T09:47:16.506Z,3.83
2018-01-19T09:47:41.980Z,3.77
2018-01-19T09:48:07.470Z,3.84
2018-01-19T09:48:32.904Z,3.78
2018-01-19T09:48:58.350Z,3.83
2018-01-19T09:49:23.818Z,3.86
2018-01-19T09:49:49.256Z,3.86
2018-01-19T09:50:14.760Z,3.84
2018-01-19T09:50:40.246Z,3.86
2018-01-19T09:51:05.660Z,3.83
2018-01-19T09:51:31.103Z,3.81
2018-01-19T09:51:56.570Z,3.87
2018-01-19T09:52:22.069Z,3.86
2018-01-19T09:52:47.513Z,3.91
2018-01-19T09:53:12.985Z,3.91
2018-01-19T09:53:38.493Z,3.91
2018-01-19T09:54:03.932Z,3.95
2018-01-19T09:54:29.377Z,3.87
2018-01-19T09:54:54.849Z,3.95
2018-01-19T09:55:20.324Z,3.98
2018-01-19T09:55:45.806Z,3.87
2018-01-19T09:56:11.229Z,3.91
2018-01-19T09:56:36.692Z,3.94
2018-01-19T09:57:02.139Z,3.86
2018-01-19T09:57:27.613Z,3.95
2018-01-19T09:57:53.104Z,3.92
2018-01-19T09:58:18.550Z,3.94
2018-01-19T09:58:44.013Z,3.98
2018-01-19T09:59:09.504Z,3.92
2018-01-19T09:59:34.957Z,4.01
2018-01-19T10:00:00.565Z,4.01
2018-01-19T10:00:26.020Z,3.96
2018-01-19T10:00:51.471Z,3.94
2018-01-19T10:01:16.904Z,3.98
2018-01-19T10:01:42.372Z,3.98
2018-01-19T10:02:07.856Z,3.95
2018-01-19T10:02:33.286Z,3.98
2018-01-19T10:02:58.776Z,3.98
2018-01-19T10:03:24.290Z,3.99
2018-01-19T10:03:49.759Z,4.04
2018-01-19T10:04:15.218Z,4.04
2018-01-19T10:04:40.646Z,3.95
2018-01-19T10:05:29.977Z,4.02
2018-01-19T10:05:55.442Z,4.02
2018-01-19T10:06:20.904Z,4.02
2018-01-19T10:06:46.372Z,4.14
2018-01-19T10:07:49.986Z,4.01
2018-01-19T10:08:15.504Z,3.98
2018-01-19T10:08:40.962Z,4.05
2018-01-19T10:09:06.396Z,4.05
2018-01-19T10:09:31.845Z,4.04
2018-01-19T10:09:57.302Z,4.12
2018-01-19T10:10:22.755Z,4.08
2018-01-19T10:10:48.297Z,4.04
2018-01-19T10:11:13.737Z,4.01
2018-01-19T10:11:39.244Z,4.08
2018-01-19T10:12:04.697Z,4.02
2018-01-19T10:12:30.154Z,4.05
2018-01-19T10:12:55.597Z,4.02
2018-01-19T10:13:21.182Z,4.01
2018-01-19T10:13:46.696Z,4.04
2018-01-19T10:14:12.349Z,3.95
2018-01-19T10:14:37.726Z,3.95
2018-01-19T10:15:03.218Z,3.95
2018-01-19T10:15:28.684Z,3.87
2018-01-19T10:15:54.192Z,4.04
2018-01-19T10:16:19.783Z,3.98
2018-01-19T10:16:45.186Z,3.92
2018-01-19T10:17:10.636Z,3.95
2018-01-19T10:17:36.098Z,3.87
2018-01-19T10:18:01.599Z,3.98
2018-01-19T10:18:27.060Z,3.94
2018-01-19T10:18:52.578Z,3.96
2018-01-19T10:19:18.000Z,4.01
2018-01-19T10:19:43.446Z,3.96
2018-01-19T10:20:08.903Z,3.98
2018-01-19T10:20:34.341Z,3.95
2018-01-19T10:20:59.812Z,3.99
2018-01-19T10:21:25.233Z,3.87
2018-01-19T10:21:50.768Z,3.98
2018-01-19T10:22:16.239Z,4.02
2018-01-19T10:22:41.736Z,3.95
2018-01-19T10:23:07.341Z,4.01
2018-01-19T10:23:32.728Z,3.91
2018-01-19T10:23:58.271Z,3.99
2018-01-19T10:24:23.765Z,3.99
2018-01-19T10:24:49.229Z,4.01
2018-01-19T10:25:14.692Z,3.98
2018-01-19T10:25:40.221Z,3.95
2018-01-19T10:26:05.717Z,3.98
2018-01-19T10:26:31.215Z,3.95
2018-01-19T10:26:56.818Z,3.96
2018-01-19T10:27:22.376Z,3.94
2018-01-19T10:27:47.976Z,4.04
2018-01-19T10:28:13.417Z,3.95
2018-01-19T10:28:38.867Z,3.96
2018-01-19T10:29:04.384Z,3.92
2018-01-19T10:29:29.846Z,3.91
2018-01-19T10:29:55.315Z,3.95
2018-01-19T10:30:20.797Z,3.86
2018-01-19T10:30:46.269Z,3.92
2018-01-19T10:31:11.808Z,3.95
2018-01-19T10:31:37.294Z,3.87
2018-01-19T10:32:02.777Z,3.87
2018-01-19T10:32:28.333Z,3.91
2018-01-19T10:32:53.716Z,3.92
2018-01-19T10:33:19.241Z,3.95
2018-01-19T10:33:44.867Z,3.98
2018-01-19T10:34:10.368Z,3.99
2018-01-19T10:34:35.877Z,3.96
2018-01-19T10:35:01.362Z,4.01
2018-01-19T10:35:26.871Z,3.98
2018-01-19T10:35:52.379Z,4.08
2018-01-19T10:36:17.882Z,4.12
2018-01-19T10:36:43.363Z,4.19
2018-01-19T10:37:08.821Z,4.14
2018-01-19T10:38:07.402Z,4.24
2018-01-19T10:38:32.904Z,4.24
2018-01-19T10:38:58.378Z,4.35
2018-01-19T10:39:23.859Z,4.35
2018-01-19T10:39:49.471Z,4.32
2018-01-19T10:40:15.014Z,4.44
2018-01-19T10:40:40.414Z,4.35
2018-01-19T10:41:05.993Z,4.37
2018-01-19T10:41:31.484Z,4.37
2018-01-19T10:41:57.005Z,4.48
2018-01-19T10:42:22.571Z,4.44
2018-01-19T10:42:48.117Z,4.48
2018-01-19T10:43:13.562Z,4.41
2018-01-19T10:43:39.022Z,4.38
2018-01-19T10:44:04.573Z,4.42
2018-01-19T10:44:30.104Z,4.44
2018-01-19T10:44:55.587Z,4.48
2018-01-19T10:45:21.176Z,4.49
2018-01-19T10:45:46.603Z,4.44
2018-01-19T10:46:12.135Z,4.41
2018-01-19T10:47:15.963Z,4.44
2018-01-19T10:47:41.411Z,4.42
2018-01-19T10:48:06.904Z,4.44
2018-01-19T10:48:32.376Z,4.37
2018-01-19T10:48:57.843Z,4.38
2018-01-19T10:49:23.336Z,4.44
2018-01-19T10:49:48.820Z,4.49
2018-01-19T10:50:14.299Z,4.45
2018-01-19T10:50:39.823Z,4.45
2018-01-19T10:51:05.317Z,4.41
2018-01-19T10:51:30.769Z,4.41
2018-01-19T10:51:56.332Z,4.45
2018-01-19T10:52:21.769Z,4.42
2018-01-19T10:52:47.387Z,4.38
2018-01-19T10:53:12.904Z,4.41
2018-01-19T10:53:38.406Z,4.37
2018-01-19T10:54:03.918Z,4.38
2018-01-19T10:54:29.416Z,4.37
2018-01-19T10:54:54.907Z,4.38
2018-01-19T10:55:20.356Z,4.35
2018-01-19T10:55:45.852Z,4.4
2018-01-19T10:56:11.338Z,4.31
2018-01-19T10:56:36.819Z,4.26
2018-01-19T10:57:02.313Z,4.26
2018-01-19T10:57:27.770Z,4.28
2018-01-19T10:57:53.306Z,4.24
2018-01-19T10:58:18.792Z,4.32
2018-01-19T10:58:44.285Z,4.17
2018-01-19T10:59:09.753Z,4.2
2018-01-19T10:59:35.242Z,4.26
2018-01-19T11:00:00.720Z,4.17
2018-01-19T11:00:26.231Z,4.16
2018-01-19T11:00:51.752Z,4.2